createdAt,value
2019-04-07T00:01:09.107Z,13.37
2019-04-07T00:03:38.980Z,13.40
2019-04-07T00:06:08.204Z,13.31
2019-04-07T00:08:37.683Z,13.32
2019-04-07T00:11:07.017Z,13.30
2019-04-07T00:13:36.488Z,13.31
2019-04-07T00:16:05.685Z,13.31
2019-04-07T00:18:34.910Z,13.26
2019-04-07T00:21:04.091Z,13.25
2019-04-07T00:23:33.681Z,13.25
2019-04-07T00:26:02.886Z,13.24
2019-04-07T00:28:32.511Z,13.31
2019-04-07T00:31:02.393Z,13.28
2019-04-07T00:33:32.219Z,13.32
2019-04-07T00:36:01.438Z,13.25
2019-04-07T00:38:30.642Z,13.35
2019-04-07T00:41:00.168Z,13.32
2019-04-07T00:43:29.642Z,13.32
2019-04-07T00:45:58.878Z,13.34
2019-04-07T00:48:28.638Z,13.32
2019-04-07T00:50:57.948Z,13.29
2019-04-07T00:53:27.275Z,13.34
2019-04-07T00:55:56.480Z,13.25
2019-04-07T00:58:25.744Z,13.27
2019-04-07T01:00:55.184Z,13.33
2019-04-07T01:03:24.893Z,13.37
2019-04-07T01:05:54.478Z,13.34
2019-04-07T01:08:23.660Z,13.30
2019-04-07T01:10:53.312Z,13.25
2019-04-07T01:13:23.099Z,13.30
2019-04-07T01:15:52.318Z,13.20
2019-04-07T01:18:21.601Z,13.27
2019-04-07T01:20:50.849Z,13.28
2019-04-07T01:23:20.223Z,13.27
2019-04-07T01:25:50.160Z,13.20
2019-04-07T01:28:19.822Z,13.25
2019-04-07T01:30:49.150Z,13.18
2019-04-07T01:33:18.460Z,13.18
2019-04-07T01:35:49.266Z,13.20
2019-04-07T01:38:18.544Z,13.21
2019-04-07T01:40:58.340Z,13.14
2019-04-07T01:43:31.792Z,13.13
2019-04-07T01:46:17.633Z,13.12
2019-04-07T01:49:00.190Z,13.15
2019-04-07T01:51:48.835Z,13.18
2019-04-07T01:54:22.970Z,13.18
2019-04-07T01:56:56.916Z,13.17
2019-04-07T01:59:44.349Z,13.16
2019-04-07T02:02:21.278Z,13.13
2019-04-07T02:04:58.155Z,13.14
2019-04-07T02:07:43.872Z,13.10
2019-04-07T02:10:32.643Z,13.06
2019-04-07T02:13:15.330Z,13.08
2019-04-07T02:15:52.692Z,13.14
2019-04-07T02:18:26.329Z,13.12
2019-04-07T02:21:15.225Z,13.08
2019-04-07T02:23:46.184Z,13.12
2019-04-07T02:26:23.564Z,13.11
2019-04-07T02:29:03.866Z,13.11
2019-04-07T02:31:38.221Z,13.21
2019-04-07T02:34:11.953Z,13.24
2019-04-07T02:36:43.214Z,13.26
2019-04-07T02:39:14.161Z,13.30
2019-04-07T02:41:45.587Z,13.32
2019-04-07T02:44:20.380Z,13.31
2019-04-07T02:46:51.676Z,13.34
2019-04-07T02:49:22.617Z,13.37
2019-04-07T02:51:54.217Z,13.41
2019-04-07T02:54:43.304Z,13.40
2019-04-07T02:57:18.904Z,13.33
2019-04-07T02:59:55.878Z,13.35
2019-04-07T03:02:41.620Z,13.34
2019-04-07T03:05:29.534Z,13.29
2019-04-07T03:08:01.542Z,13.25
2019-04-07T03:10:47.662Z,13.22
2019-04-07T03:13:24.453Z,13.25
2019-04-07T03:15:55.376Z,13.26
2019-04-07T03:18:39.033Z,13.29
2019-04-07T03:21:13.191Z,13.19
2019-04-07T03:23:44.181Z,13.14
2019-04-07T03:26:18.403Z,13.17
2019-04-07T03:28:58.198Z,13.13
2019-04-07T03:31:46.824Z,13.14
2019-04-07T03:34:26.071Z,13.12
2019-04-07T03:37:24.326Z,13.14
2019-04-07T03:39:46.119Z,13.10
2019-04-07T03:42:20.017Z,13.11
2019-04-07T03:44:53.698Z,13.10
2019-04-07T03:47:25.792Z,13.08
2019-04-07T03:49:57.180Z,13.06
2019-04-07T03:52:34.078Z,13.03
2019-04-07T03:55:04.945Z,13.03
2019-04-07T03:57:41.575Z,13.04
2019-04-07T04:00:55.103Z,12.99
2019-04-07T04:03:29.941Z,12.99
2019-04-07T04:06:00.996Z,12.98
2019-04-07T04:08:35.023Z,12.98
2019-04-07T04:11:11.689Z,12.97
2019-04-07T04:13:58.235Z,12.94
2019-04-07T04:16:28.537Z,12.89
2019-04-07T04:18:58.749Z,12.84
2019-04-07T04:21:28.851Z,12.79
2019-04-07T04:23:59.036Z,12.78
2019-04-07T04:26:29.104Z,12.77
2019-04-07T04:28:58.414Z,12.70
2019-04-07T04:31:27.588Z,12.68
2019-04-07T04:33:57.926Z,12.60
2019-04-07T04:36:27.327Z,12.60
2019-04-07T04:38:56.626Z,12.64
2019-04-07T04:41:25.797Z,12.60
2019-04-07T04:43:54.985Z,12.59
2019-04-07T04:46:24.295Z,12.57
2019-04-07T04:48:55.250Z,12.60
2019-04-07T04:51:24.431Z,12.62
2019-04-07T04:53:53.800Z,12.62
2019-04-07T04:56:23.030Z,12.61
2019-04-07T04:58:53.170Z,12.57
2019-04-07T05:01:23.031Z,12.55
2019-04-07T05:03:52.547Z,12.55
2019-04-07T05:06:21.849Z,12.51
2019-04-07T05:08:51.241Z,12.47
2019-04-07T05:11:21.167Z,12.46
2019-04-07T05:13:50.467Z,12.47
2019-04-07T05:16:19.810Z,12.44
2019-04-07T05:18:49.174Z,12.45
2019-04-07T05:21:18.563Z,12.46
2019-04-07T05:23:48.058Z,12.43
2019-04-07T05:26:18.025Z,12.42
2019-04-07T05:28:47.227Z,12.41
2019-04-07T05:31:16.439Z,12.43
2019-04-07T05:33:46.439Z,12.45
2019-04-07T05:36:15.868Z,12.46
2019-04-07T05:38:45.511Z,12.50
2019-04-07T05:41:14.964Z,12.51
2019-04-07T05:43:44.255Z,12.54
2019-04-07T05:46:13.858Z,12.54
2019-04-07T05:48:43.625Z,12.57
2019-04-07T05:51:13.390Z,12.61
2019-04-07T05:53:46.333Z,12.65
2019-04-07T05:56:13.643Z,12.71
2019-04-07T05:58:43.807Z,12.73
2019-04-07T06:01:13.053Z,12.78
2019-04-07T06:03:43.661Z,12.80
2019-04-07T06:06:13.471Z,12.84
2019-04-07T06:08:42.843Z,12.88
2019-04-07T06:11:12.582Z,12.90
2019-04-07T06:13:43.783Z,12.93
2019-04-07T06:16:12.970Z,12.96
2019-04-07T06:18:42.251Z,13.00
2019-04-07T06:21:14.144Z,13.03
2019-04-07T06:23:43.205Z,13.08
2019-04-07T06:26:13.075Z,13.19
2019-04-07T06:28:42.354Z,13.27
2019-04-07T06:31:11.776Z,13.28
2019-04-07T06:33:41.490Z,13.32
2019-04-07T06:36:11.515Z,13.40
2019-04-07T06:38:43.609Z,13.46
2019-04-07T06:41:11.686Z,13.48
2019-04-07T06:43:41.220Z,13.56
2019-04-07T06:46:17.657Z,13.61
2019-04-07T06:48:55.106Z,13.64
2019-04-07T06:51:29.204Z,13.70
2019-04-07T06:54:01.189Z,13.78
2019-04-07T06:56:43.795Z,13.85
2019-04-07T06:59:20.524Z,13.91
2019-04-07T07:01:51.401Z,14.00
2019-04-07T07:04:25.283Z,14.03
2019-04-07T07:07:08.877Z,14.06
2019-04-07T07:09:42.865Z,14.05
2019-04-07T07:12:22.463Z,14.08
2019-04-07T07:14:51.766Z,14.15
2019-04-07T07:17:32.235Z,14.22
2019-04-07T07:20:09.215Z,14.31
2019-04-07T07:22:55.064Z,14.40
2019-04-07T07:25:24.285Z,14.51
2019-04-07T07:27:53.527Z,14.57
2019-04-07T07:30:22.745Z,14.65
2019-04-07T07:32:52.000Z,14.73
2019-04-07T07:35:21.170Z,14.79
2019-04-07T07:37:50.990Z,14.87
2019-04-07T07:40:21.067Z,14.97
2019-04-07T07:42:51.133Z,15.08
2019-04-07T07:45:20.465Z,15.19
2019-04-07T07:47:53.183Z,15.24
2019-04-07T07:50:20.654Z,15.37
2019-04-07T07:52:53.379Z,15.42
2019-04-07T07:55:20.982Z,15.51
2019-04-07T07:57:54.325Z,15.53
2019-04-07T08:00:21.202Z,15.72
2019-04-07T08:02:52.507Z,15.78
2019-04-07T08:05:21.526Z,15.88
2019-04-07T08:07:51.209Z,15.99
2019-04-07T08:10:21.296Z,16.00
2019-04-07T08:12:51.923Z,16.07
2019-04-07T08:15:25.503Z,16.20
2019-04-07T08:17:52.138Z,16.28
2019-04-07T08:20:22.034Z,16.42
2019-04-07T08:22:51.546Z,16.52
2019-04-07T08:25:24.437Z,16.57
2019-04-07T08:27:51.856Z,16.64
2019-04-07T08:30:21.658Z,16.76
2019-04-07T08:32:50.844Z,16.88
2019-04-07T08:35:20.254Z,17.01
2019-04-07T08:37:50.067Z,17.07
2019-04-07T08:40:19.925Z,17.24
2019-04-07T08:42:50.187Z,17.39
2019-04-07T08:45:21.125Z,17.47
2019-04-07T08:47:51.716Z,17.49
2019-04-07T08:50:22.654Z,17.58
2019-04-07T08:52:52.232Z,17.66
2019-04-07T08:55:21.854Z,17.74
2019-04-07T08:57:51.765Z,17.90
2019-04-07T09:00:22.794Z,17.98
2019-04-07T09:03:01.643Z,18.08
2019-04-07T09:05:27.706Z,18.14
2019-04-07T09:07:55.146Z,18.22
2019-04-07T09:10:25.973Z,18.33
2019-04-07T09:12:56.814Z,18.43
2019-04-07T09:15:28.245Z,18.52
2019-04-07T09:17:59.368Z,18.69
2019-04-07T09:20:36.157Z,18.85
2019-04-07T09:23:13.469Z,19.01
2019-04-07T09:25:47.305Z,19.09
2019-04-07T09:28:31.499Z,19.11
2019-04-07T09:31:03.593Z,19.26
2019-04-07T09:33:46.249Z,19.43
2019-04-07T09:36:31.592Z,19.54
2019-04-07T09:39:07.864Z,19.57
2019-04-07T09:41:45.078Z,19.62
2019-04-07T09:44:22.104Z,19.66
2019-04-07T09:46:55.767Z,19.62
2019-04-07T09:49:46.758Z,19.84
2019-04-07T09:52:20.873Z,19.95
2019-04-07T09:55:01.055Z,20.08
2019-04-07T09:57:50.701Z,20.19
2019-04-07T10:00:39.895Z,20.23
2019-04-07T10:03:27.004Z,20.33
2019-04-07T10:06:09.834Z,20.37
2019-04-07T10:08:43.171Z,20.34
2019-04-07T10:11:19.836Z,20.46
2019-04-07T10:13:53.617Z,20.60
2019-04-07T10:16:27.232Z,20.62
2019-04-07T10:19:06.673Z,20.57
2019-04-07T10:21:53.612Z,20.72
2019-04-07T10:24:27.241Z,20.80
2019-04-07T10:27:10.789Z,20.86
2019-04-07T10:29:44.954Z,20.98
2019-04-07T10:32:18.933Z,20.99
2019-04-07T10:35:05.926Z,21.14
2019-04-07T10:37:45.710Z,21.05
2019-04-07T10:40:24.427Z,21.25
2019-04-07T10:42:58.435Z,21.25
2019-04-07T10:45:29.645Z,21.20
2019-04-07T10:48:06.909Z,21.28
2019-04-07T10:50:53.527Z,21.47
2019-04-07T10:53:31.304Z,21.50
2019-04-07T10:56:08.886Z,21.56
2019-04-07T10:58:42.513Z,21.57
2019-04-07T11:01:28.989Z,21.62
2019-04-07T11:04:02.694Z,21.76
2019-04-07T11:06:50.166Z,21.85
2019-04-07T11:09:23.751Z,21.99
2019-04-07T11:11:54.816Z,21.98
2019-04-07T11:14:42.001Z,22.10
2019-04-07T11:17:12.846Z,22.17
2019-04-07T11:19:44.479Z,22.35
2019-04-07T11:22:31.771Z,22.28
2019-04-07T11:25:18.899Z,22.41
2019-04-07T11:28:05.962Z,22.33
2019-04-07T11:30:37.499Z,22.44
2019-04-07T11:33:11.749Z,22.44
2019-04-07T11:35:45.587Z,22.37
2019-04-07T11:38:34.312Z,22.40
2019-04-07T11:41:24.132Z,22.53
2019-04-07T11:43:56.454Z,22.57
2019-04-07T11:46:35.904Z,22.60
2019-04-07T11:49:19.506Z,22.66
2019-04-07T11:52:02.223Z,22.74
2019-04-07T11:54:38.909Z,22.82
2019-04-07T11:57:09.878Z,22.87
2019-04-07T11:59:46.551Z,22.93
2019-04-07T12:02:19.837Z,23.04
2019-04-07T12:04:55.888Z,23.09
2019-04-07T12:07:30.485Z,23.11
2019-04-07T12:10:17.891Z,23.28
2019-04-07T12:13:07.183Z,23.58
2019-04-07T12:15:56.080Z,24.28
2019-04-07T12:18:42.535Z,26.31
2019-04-07T12:21:29.811Z,27.09
2019-04-07T12:24:01.544Z,27.57
2019-04-07T12:26:47.354Z,27.57
2019-04-07T12:29:18.861Z,27.19
2019-04-07T12:31:59.660Z,27.89
2019-04-07T12:34:30.750Z,27.62
2019-04-07T12:37:19.201Z,27.31
2019-04-07T12:39:53.406Z,28.19
2019-04-07T12:42:24.307Z,25.89
2019-04-07T12:44:55.564Z,27.64
2019-04-07T12:47:43.044Z,28.02
2019-04-07T12:50:30.523Z,27.63
2019-04-07T12:53:02.779Z,28.89
2019-04-07T12:55:40.508Z,29.15
2019-04-07T12:58:19.931Z,29.32
2019-04-07T13:01:09.316Z,29.25
2019-04-07T13:03:41.154Z,29.23
2019-04-07T13:06:20.576Z,29.47
2019-04-07T13:09:00.740Z,30.02
2019-04-07T13:11:49.730Z,28.39
2019-04-07T13:14:29.051Z,26.86
2019-04-07T13:17:01.661Z,28.35
2019-04-07T13:19:35.329Z,29.86
2019-04-07T13:22:06.745Z,28.13
2019-04-07T13:24:56.979Z,27.31
2019-04-07T13:27:26.502Z,27.82
2019-04-07T13:30:09.547Z,27.05
2019-04-07T13:32:59.239Z,29.03
2019-04-07T13:35:44.232Z,29.56
2019-04-07T13:38:18.077Z,29.49
2019-04-07T13:40:48.953Z,29.93
2019-04-07T13:43:31.334Z,30.23
2019-04-07T13:46:01.316Z,28.13
2019-04-07T13:48:32.336Z,27.87
2019-04-07T13:51:19.537Z,29.30
2019-04-07T13:53:59.553Z,29.93
2019-04-07T13:56:49.879Z,30.44
2019-04-07T13:59:19.332Z,30.89
2019-04-07T14:01:59.165Z,30.58
2019-04-07T14:04:36.102Z,31.09
2019-04-07T14:07:10.049Z,31.05
2019-04-07T14:09:41.672Z,30.90
2019-04-07T14:12:24.891Z,30.93
2019-04-07T14:15:05.215Z,31.37
2019-04-07T14:17:48.117Z,31.30
2019-04-07T14:20:19.335Z,31.46
2019-04-07T14:22:55.670Z,30.94
2019-04-07T14:25:47.061Z,30.65
2019-04-07T14:28:17.744Z,30.28
2019-04-07T14:31:05.456Z,30.32
2019-04-07T14:33:51.413Z,30.28
2019-04-07T14:36:31.513Z,30.62
2019-04-07T14:39:02.096Z,30.32
2019-04-07T14:41:38.770Z,30.31
2019-04-07T14:44:15.188Z,30.29
2019-04-07T14:46:49.030Z,30.11
2019-04-07T14:49:22.796Z,29.47
2019-04-07T14:51:59.862Z,29.82
2019-04-07T14:54:46.449Z,29.66
2019-04-07T14:57:29.431Z,29.14
2019-04-07T15:00:03.470Z,28.62
2019-04-07T15:02:33.452Z,28.56
2019-04-07T15:05:06.073Z,28.75
2019-04-07T15:07:48.795Z,28.52
2019-04-07T15:10:26.429Z,28.79
2019-04-07T15:13:03.243Z,29.20
2019-04-07T15:15:32.549Z,29.31
2019-04-07T15:18:01.940Z,28.92
2019-04-07T15:20:31.231Z,28.47
2019-04-07T15:23:01.606Z,28.53
2019-04-07T15:25:31.435Z,28.48
2019-04-07T15:28:01.299Z,28.68
2019-04-07T15:30:31.115Z,28.89
2019-04-07T15:33:02.393Z,28.68
2019-04-07T15:35:31.752Z,28.20
2019-04-07T15:38:01.266Z,27.99
2019-04-07T15:40:34.042Z,27.92
2019-04-07T15:43:04.378Z,27.95
2019-04-07T15:45:33.353Z,27.35
2019-04-07T15:48:02.929Z,27.67
2019-04-07T15:50:35.469Z,27.34
2019-04-07T15:53:09.324Z,27.19
2019-04-07T15:55:47.838Z,27.24
2019-04-07T15:58:11.352Z,27.30
2019-04-07T16:00:52.660Z,27.16
2019-04-07T16:03:22.351Z,26.72
2019-04-07T16:05:56.229Z,26.23
2019-04-07T16:08:28.790Z,25.87
2019-04-07T16:10:56.562Z,25.60
2019-04-07T16:13:26.654Z,25.22
2019-04-07T16:15:58.412Z,24.81
2019-04-07T16:18:28.447Z,24.82
2019-04-07T16:20:58.084Z,24.67
2019-04-07T16:23:36.440Z,24.37
2019-04-07T16:26:06.559Z,24.07
2019-04-07T16:28:38.899Z,24.08
2019-04-07T16:31:08.543Z,23.91
2019-04-07T16:33:43.978Z,23.62
2019-04-07T16:36:13.237Z,23.46
2019-04-07T16:38:43.188Z,23.32
2019-04-07T16:41:14.134Z,23.31
2019-04-07T16:43:43.515Z,23.22
2019-04-07T16:46:16.986Z,23.07
2019-04-07T16:48:43.760Z,22.95
2019-04-07T16:51:13.464Z,22.87
2019-04-07T16:53:43.380Z,22.76
2019-04-07T16:56:13.621Z,22.69
2019-04-07T16:58:43.670Z,22.62
2019-04-07T17:01:18.508Z,22.52
2019-04-07T17:03:48.662Z,22.44
2019-04-07T17:06:20.773Z,22.43
2019-04-07T17:08:51.511Z,22.35
2019-04-07T17:11:21.003Z,22.25
2019-04-07T17:13:50.302Z,22.27
2019-04-07T17:16:22.908Z,22.26
2019-04-07T17:18:51.084Z,22.15
2019-04-07T17:21:20.503Z,22.12
2019-04-07T17:23:53.317Z,22.07
2019-04-07T17:26:23.552Z,22.01
2019-04-07T17:28:52.655Z,21.90
2019-04-07T17:31:22.144Z,21.84
2019-04-07T17:33:52.115Z,21.74
2019-04-07T17:36:22.795Z,21.57
2019-04-07T17:38:54.033Z,21.52
2019-04-07T17:41:23.497Z,21.44
2019-04-07T17:44:00.982Z,21.35
2019-04-07T17:46:47.708Z,21.33
2019-04-07T17:49:23.352Z,21.19
2019-04-07T17:51:57.442Z,21.09
2019-04-07T17:54:31.162Z,20.99
2019-04-07T17:57:08.762Z,20.92
2019-04-07T17:59:49.317Z,20.84
2019-04-07T18:02:19.706Z,20.79
2019-04-07T18:04:53.426Z,20.73
2019-04-07T18:07:30.032Z,20.66
2019-04-07T18:10:04.759Z,20.61
2019-04-07T18:12:45.390Z,20.53
2019-04-07T18:15:14.829Z,20.45
2019-04-07T18:17:56.272Z,20.37
2019-04-07T18:20:32.739Z,20.29
2019-04-07T18:23:32.638Z,20.24
2019-04-07T18:26:21.778Z,20.16
2019-04-07T18:29:01.842Z,20.09
2019-04-07T18:31:36.216Z,20.02
2019-04-07T18:34:25.156Z,19.96
2019-04-07T18:36:54.267Z,19.90
2019-04-07T18:39:27.832Z,19.82
2019-04-07T18:42:03.499Z,19.74
2019-04-07T18:44:38.634Z,19.68
2019-04-07T18:47:06.887Z,19.65
2019-04-07T18:49:40.923Z,19.59
2019-04-07T18:52:16.067Z,19.48
2019-04-07T18:54:47.611Z,19.43
2019-04-07T18:57:34.832Z,19.38
2019-04-07T19:00:23.410Z,19.34
2019-04-07T19:03:03.265Z,19.28
2019-04-07T19:05:52.069Z,19.20
2019-04-07T19:08:28.817Z,19.13
2019-04-07T19:11:10.665Z,19.07
2019-04-07T19:13:32.526Z,19.04
2019-04-07T19:16:19.548Z,18.99
2019-04-07T19:19:04.877Z,18.93
2019-04-07T19:21:47.010Z,18.86
2019-04-07T19:24:23.899Z,18.80
2019-04-07T19:26:56.175Z,18.76
2019-04-07T19:29:46.151Z,18.72
2019-04-07T19:32:17.983Z,18.64
2019-04-07T19:34:52.998Z,18.57
2019-04-07T19:37:32.714Z,18.54
2019-04-07T19:40:19.776Z,18.53
2019-04-07T19:42:59.681Z,18.46
2019-04-07T19:45:33.304Z,18.42
2019-04-07T19:48:08.378Z,18.37
2019-04-07T19:50:42.766Z,18.32
2019-04-07T19:53:32.653Z,18.29
2019-04-07T19:56:04.478Z,18.22
2019-04-07T19:58:38.631Z,18.17
2019-04-07T20:01:17.258Z,18.13
2019-04-07T20:03:49.546Z,18.07
2019-04-07T20:06:36.653Z,18.02
2019-04-07T20:09:15.465Z,17.94
2019-04-07T20:12:02.894Z,17.91
2019-04-07T20:14:47.372Z,17.88
2019-04-07T20:17:18.930Z,17.80
2019-04-07T20:19:59.850Z,17.70
2019-04-07T20:22:30.777Z,17.67
2019-04-07T20:25:20.418Z,17.64
2019-04-07T20:28:09.777Z,17.55
2019-04-07T20:30:56.684Z,17.50
2019-04-07T20:33:32.951Z,17.45
2019-04-07T20:36:23.750Z,17.43
2019-04-07T20:39:01.920Z,17.37
2019-04-07T20:41:38.640Z,17.34
2019-04-07T20:44:25.842Z,17.32
2019-04-07T20:47:12.202Z,17.26
2019-04-07T20:50:00.087Z,17.19
2019-04-07T20:52:31.980Z,17.18
2019-04-07T20:55:15.581Z,17.13
2019-04-07T20:57:51.351Z,17.08
2019-04-07T21:00:38.270Z,17.00
2019-04-07T21:03:19.614Z,17.00
2019-04-07T21:05:42.676Z,16.91
2019-04-07T21:08:16.571Z,16.89
2019-04-07T21:11:07.501Z,16.87
2019-04-07T21:13:39.568Z,16.82
2019-04-07T21:16:16.636Z,16.80
2019-04-07T21:18:47.596Z,16.74
2019-04-07T21:21:37.472Z,16.73
2019-04-07T21:24:23.807Z,16.72
2019-04-07T21:27:03.878Z,16.70
2019-04-07T21:29:34.716Z,16.66
2019-04-07T21:32:09.861Z,16.64
2019-04-07T21:34:40.836Z,16.57
2019-04-07T21:37:20.316Z,16.54
2019-04-07T21:39:53.797Z,16.55
2019-04-07T21:42:30.774Z,16.52
2019-04-07T21:45:29.152Z,16.46
2019-04-07T21:48:09.580Z,16.46
2019-04-07T21:50:56.357Z,16.39
2019-04-07T21:53:45.467Z,16.37
2019-04-07T21:56:16.406Z,16.31
2019-04-07T21:58:52.003Z,16.31
2019-04-07T22:01:39.016Z,16.30
2019-04-07T22:04:10.702Z,16.30
2019-04-07T22:06:47.671Z,16.26
2019-04-07T22:09:21.269Z,16.26
2019-04-07T22:11:51.440Z,16.24
2019-04-07T22:14:20.919Z,16.22
2019-04-07T22:16:51.178Z,16.19
2019-04-07T22:19:20.502Z,16.17
2019-04-07T22:21:53.228Z,16.15
2019-04-07T22:24:20.787Z,16.10
2019-04-07T22:26:50.548Z,16.05
2019-04-07T22:29:20.691Z,16.04
2019-04-07T22:31:51.612Z,16.03
2019-04-07T22:34:20.914Z,16.03
2019-04-07T22:36:50.170Z,15.97
2019-04-07T22:39:19.410Z,15.92
2019-04-07T22:41:48.814Z,15.90
2019-04-07T22:44:20.354Z,15.87
2019-04-07T22:46:51.268Z,15.88
2019-04-07T22:49:20.063Z,15.84
2019-04-07T22:51:50.548Z,15.83
2019-04-07T22:54:20.027Z,15.79
2019-04-07T22:56:49.291Z,15.72
2019-04-07T22:59:18.522Z,15.70
2019-04-07T23:01:47.738Z,15.62
2019-04-07T23:04:16.957Z,15.63
2019-04-07T23:06:46.184Z,15.61
2019-04-07T23:09:15.571Z,15.59
2019-04-07T23:11:44.839Z,15.59
2019-04-07T23:14:14.043Z,15.54
2019-04-07T23:16:44.174Z,15.56
2019-04-07T23:19:14.331Z,15.56
2019-04-07T23:21:43.586Z,15.57
2019-04-07T23:24:12.975Z,15.59
2019-04-07T23:26:42.576Z,15.58
2019-04-07T23:29:12.153Z,15.46
2019-04-07T23:31:41.555Z,15.48
2019-04-07T23:34:10.793Z,15.46
2019-04-07T23:36:40.011Z,15.44
2019-04-07T23:39:09.934Z,15.41
2019-04-07T23:41:39.458Z,15.36
2019-04-07T23:44:09.419Z,15.32
2019-04-07T23:46:39.335Z,15.27
2019-04-07T23:49:08.681Z,15.23
2019-04-07T23:51:37.922Z,15.19
2019-04-07T23:54:14.333Z,15.13
2019-04-07T23:56:43.876Z,15.06
2019-04-07T23:59:13.170Z,14.99
